Data for 05/30/2009

Time Sea-Level Adjusted Pressure Absolute Pressure Temperature Relative Humidity Dew Point   
(mb) (inHg) (mb) (inHg) (C) (F) (%) (C) (F)
00:05 1021 30.15 850 25.1 16.8 62.2 48 5.8 42.4
00:10 1021 30.15 850 25.1 16.7 62 49 6 42.8
00:15 1021 30.15 850 25.1 16.5 61.8 49 5.9 42.6
00:20 1021 30.15 850 25.1 16.5 61.7 50 6.1 43
00:25 1021 30.15 850 25.1 16.4 61.6 50 6.1 43
00:30 1021 30.15 850 25.1 16.2 61.2 51 6.1 43
00:35 1021 30.15 850 25.1 16.2 61.1 50 5.8 42.5
00:40 1021 30.15 850 25.1 16.1 61 51 6.2 43.1
00:45 1021 30.15 850 25.1 15.9 60.6 51 6 42.7
00:50 1021 30.15 850 25.1 15.7 60.3 52 6.1 43
00:55 1021 30.15 850 25.1 15.8 60.4 50 5.5 42
01:00 1021 30.15 850 25.1 15.7 60.3 51 5.6 42.2
01:05 1021 30.15 850 25.1 15.6 60 52 5.8 42.5
01:10 1021 30.15 850 25.1 15.4 59.6 52 5.6 42.1
01:15 1021 30.15 850 25.1 15.3 59.6 52 5.5 41.9
01:20 1021 30.15 850 25.1 15.4 59.8 51 5.3 41.6
01:25 1021 30.15 850 25.1 15.4 59.8 51 5.5 41.9
01:30 1021 30.15 850 25.1 15.3 59.6 51 5.3 41.6
01:35 1021 30.15 850 25.1 15.2 59.4 51 5.4 41.7
01:40 1021 30.15 850 25.1 15.3 59.5 52 5.6 42
01:45 1021 30.15 850 25.1 15 59 55 6.2 43.1
01:50 1021 30.15 850 25.1 14.7 58.5 53 5.4 41.7
01:55 1021 30.15 850 25.1 14.4 58 55 5.7 42.2
02:00 1021 30.15 850 25.1 13.7 56.7 58 5.7 42.3
02:05 1021 30.15 850 25.1 13.2 55.7 58 5.1 41.2
02:10 1021 30.15 850 25.1 13 55.4 60 5.4 41.7
02:15 1021 30.15 850 25.1 12.9 55.3 58 4.9 40.8
02:20 1021 30.15 850 25.1 13.2 55.7 56 4.6 40.4
02:25 1021 30.15 850 25.1 13.3 55.9 57 5.1 41.2
02:30 1021 30.15 850 25.1 12.6 54.7 61 5.3 41.5
02:35 1021 30.15 850 25.1 12.6 54.7 57 4.5 40
02:40 1021 30.15 850 25.1 13.1 55.5 55 4.2 39.6
02:45 1021 30.15 850 25.1 13.2 55.7 56 4.8 40.6
02:50 1021 30.15 850 25.1 13.1 55.6 56 4.7 40.4
02:55 1021 30.15 850 25.1 13.1 55.6 57 4.9 40.9
03:00 1021 30.15 850 25.1 12.8 55 59 5 40.9
03:05 1021 30.15 850 25.1 12.7 54.8 59 5 41
03:10 1021 30.15 850 25.1 12.5 54.5 60 4.9 40.8
03:15 1021 30.15 850 25.1 12.3 54.1 60 4.7 40.5
03:20 1021 30.15 850 25.1 12.3 54.1 59 4.6 40.2
03:25 1021 30.15 850 25.1 12.3 54.1 59 4.4 40
03:30 1021 30.15 850 25.1 12.5 54.4 58 4.4 39.9
03:35 1021 30.15 850 25.1 12.6 54.7 57 4.3 39.8
03:40 1021 30.15 850 25.1 12.6 54.7 57 4.4 40
03:45 1021 30.15 850 25.1 12.4 54.4 58 4.4 40
03:50 1021 30.15 850 25.1 12.2 54 59 4.4 40
03:55 1021 30.15 850 25.1 12.1 53.8 59 4.4 39.9
04:00 1021 30.15 850 25.1 11.9 53.4 59 4.3 39.7
04:05 1021 30.15 850 25.1 11.8 53.3 60 4.3 39.8
04:10 1021 30.15 850 25.1 11.8 53.2 59 4.1 39.4
04:15 1021 30.15 850 25.1 11.7 53.1 60 4.3 39.7
04:20 1021 30.15 850 25.1 11.8 53.2 61 4.5 40
04:25 1020 30.12 850 25.1 12.1 53.7 60 4.5 40.1
04:30 1020 30.12 850 25.1 12 53.6 61 4.7 40.4
04:35 1020 30.12 850 25.1 11.6 52.8 62 4.5 40.1
04:40 1020 30.12 850 25.1 11.3 52.3 63 4.6 40.3
04:45 1020 30.12 849 25.07 11.3 52.4 63 4.5 40.2
04:50 1020 30.12 849 25.07 11.6 52.8 61 4.4 40
04:55 1020 30.12 849 25.07 11.7 53.1 60 4.4 39.9
05:00 1020 30.12 849 25.07 11.4 52.5 62 4.4 39.8
05:05 1020 30.12 849 25.07 11.3 52.4 61 4.2 39.5
05:10 1020 30.12 849 25.07 11.4 52.5 60 4.1 39.3
05:15 1020 30.12 849 25.07 11.5 52.7 60 4.1 39.3
05:20 1020 30.12 849 25.07 11.8 53.2 59 4.1 39.4
05:25 1020 30.12 849 25.07 12.1 53.8 58 4.2 39.6
05:30 1020 30.12 849 25.07 12.2 53.9 59 4.4 39.9
05:35 1020 30.12 849 25.07 12 53.5 60 4.6 40.3
05:40 1020 30.12 849 25.07 11.6 52.9 61 4.4 39.9
05:45 1020 30.12 849 25.07 11.5 52.7 61 4.3 39.7
05:50 1020 30.12 849 25.07 11.7 53 60 4.1 39.4
05:55 1020 30.12 849 25.07 11.8 53.3 59 4.2 39.5
06:00 1020 30.12 849 25.07 12 53.5 58 4.1 39.3
06:05 1020 30.12 849 25.07 12 53.6 58 4.1 39.4
06:10 1020 30.12 849 25.07 12 53.5 60 4.4 40
06:15 1020 30.12 849 25.07 11.8 53.3 59 4 39.3
06:20 1020 30.12 849 25.07 12.1 53.8 58 4.2 39.6
06:25 1020 30.12 849 25.07 12.3 54.1 56 3.9 39.1
06:30 1020 30.12 849 25.07 12.5 54.5 56 4.1 39.4
06:35 1020 30.12 849 25.07 12.3 54.1 58 4.3 39.7
06:40 1020 30.12 849 25.07 12 53.6 59 4.3 39.7
06:45 1020 30.12 849 25.07 11.9 53.4 59 4.2 39.6
06:50 1020 30.12 850 25.1 12 53.6 59 4.4 39.8
06:55 1020 30.12 850 25.1 12 53.6 59 4.3 39.7
07:00 1020 30.12 849 25.07 12.1 53.7 60 4.5 40.1
07:05 1020 30.12 849 25.07 12 53.6 61 4.8 40.6
07:10 1020 30.12 849 25.07 12.2 53.9 60 4.7 40.5
07:15 1020 30.12 849 25.07 12.4 54.2 59 4.6 40.3
07:20 1020 30.12 849 25.07 12.8 55 58 4.7 40.5
07:25 1020 30.12 850 25.1 13.2 55.8 57 4.9 40.8
07:30 1020 30.12 850 25.1 13.5 56.2 56 4.9 40.9
07:35 1020 30.12 850 25.1 14 57.1 53 4.7 40.5
07:40 1020 30.12 850 25.1 14.3 57.7 53 4.8 40.7
07:45 1020 30.12 850 25.1 14.7 58.5 53 5.3 41.5
07:50 1020 30.12 850 25.1 15.1 59.2 50 5 41
07:55 1020 30.12 850 25.1 15.5 59.8 51 5.5 41.9
08:00 1020 30.12 850 25.1 15.9 60.6 49 5.2 41.4
08:05 1020 30.12 850 25.1 16.2 61.2 48 5.4 41.6
08:10 1020 30.12 850 25.1 16.5 61.7 47 5.1 41.2
08:15 1020 30.12 850 25.1 16.6 62 47 5.3 41.5
08:20 1020 30.12 850 25.1 16.9 62.5 46 5.4 41.8
08:25 1020 30.12 850 25.1 17.5 63.5 47 6.3 43.3
08:30 1020 30.12 850 25.1 17.4 63.2 45 5.4 41.7
08:35 1020 30.12 850 25.1 17.5 63.5 43 4.9 40.9
08:40 1020 30.12 850 25.1 17.6 63.7 44 5.3 41.5
08:45 1020 30.12 850 25.1 18.1 64.5 43 5.4 41.8
08:50 1020 30.12 849 25.07 18.6 65.5 41 5.2 41.4
08:55 1020 30.12 849 25.07 19.1 66.3 39 5.1 41.1
09:00 1020 30.12 849 25.07 19.7 67.5 38 5.1 41.1
09:05 1020 30.12 849 25.07 20.2 68.3 37 5 41
09:10 1020 30.12 849 25.07 20.4 68.7 36 5.1 41.2
09:15 1020 30.12 849 25.07 20.5 68.8 36 5.1 41.1
09:20 1020 30.12 849 25.07 20.6 69.2 35 4.8 40.6
09:25 1020 30.12 849 25.07 20.7 69.3 36 5.2 41.3
09:30 1020 30.12 849 25.07 20.4 68.8 37 5.3 41.6
09:35 1020 30.12 849 25.07 20.5 68.9 35 4.7 40.5
09:40 1020 30.12 849 25.07 20.2 68.4 37 5.3 41.6
09:45 1020 30.12 849 25.07 20.3 68.5 37 5.3 41.6
09:50 1020 30.12 849 25.07 19.9 67.9 37 4.9 40.8
09:55 1020 30.12 849 25.07 19.8 67.6 37 4.8 40.7
10:00 1020 30.12 849 25.07 20 67.9 35 4.2 39.5
10:05 1020 30.12 849 25.07 21 69.7 32 3.7 38.7
10:10 1020 30.12 849 25.07 21.9 71.4 31 4.1 39.4
10:15 1020 30.12 849 25.07 22.5 72.5 30 4 39.3
10:20 1020 30.12 849 25.07 22.4 72.3 32 4.9 40.9
10:25 1020 30.12 849 25.07 22.3 72.1 31 4.7 40.4
10:30 1020 30.12 849 25.07 22.4 72.2 31 4.6 40.3
10:35 1020 30.12 849 25.07 22.8 73.1 29 4.3 39.7
10:40 1020 30.12 849 25.07 23.7 74.7 28 4.2 39.6
10:45 1020 30.12 849 25.07 23.8 74.9 29 5 41
10:50 1020 30.12 849 25.07 23.9 75 29 5.1 41.2
10:55 1020 30.12 849 25.07 24.1 75.3 29 5.2 41.3
11:00 1020 30.12 849 25.07 23.8 74.8 30 5.2 41.3
11:05 1020 30.12 849 25.07 23.7 74.7 29 5 40.9
11:10 1020 30.12 849 25.07 23.1 73.6 30 4.9 40.9
11:15 1020 30.12 849 25.07 23.2 73.7 31 5.2 41.4
11:20 1020 30.12 849 25.07 23.3 74 31 5.6 42
11:25 1020 30.12 849 25.07 22.6 72.7 31 4.8 40.6
11:30 1019 30.09 849 25.07 22.1 71.8 32 4.9 40.8
11:35 1019 30.09 849 25.07 21.7 71.1 33 4.7 40.5
11:40 1019 30.09 849 25.07 23 73.5 29 4.4 39.9
11:45 1019 30.09 849 25.07 24.4 75.9 27 4.4 39.9
11:50 1019 30.09 849 25.07 24.5 76.1 28 5 41
11:55 1019 30.09 849 25.07 24.4 76 28 4.9 40.9
12:00 1019 30.09 849 25.07 24.9 76.9 26 4.4 39.8
12:05 1019 30.09 849 25.07 25.5 77.9 26 4.9 40.8
12:10 1019 30.09 848 25.04 25.4 77.6 27 5.1 41.2
12:15 1019 30.09 848 25.04 25 77 26 4.7 40.4
12:20 1019 30.09 848 25.04 24.1 75.4 28 4.8 40.6
12:25 1019 30.09 848 25.04 24.1 75.4 28 4.5 40.1
12:30 1019 30.09 848 25.04 24.5 76 28 4.9 40.7
12:35 1019 30.09 848 25.04 25 77 26 4.5 40.1
12:40 1019 30.09 848 25.04 25 77 28 5.2 41.4
12:45 1019 30.09 848 25.04 24.3 75.7 29 5.1 41.2
12:50 1019 30.09 848 25.04 24.2 75.5 27 4.2 39.5
12:55 1019 30.09 848 25.04 24.6 76.2 28 5.1 41.2
13:00 1019 30.09 848 25.04 24.7 76.4 27 4.5 40
13:05 1019 30.09 848 25.04 23.9 74.9 28 4.2 39.6
13:10 1019 30.09 848 25.04 23.7 74.7 27 3.9 39
13:15 1019 30.09 848 25.04 23.7 74.7 28 4.2 39.5
13:20 1019 30.09 848 25.04 24.5 76.1 26 4.2 39.6
13:25 1019 30.09 848 25.04 24 75.3 27 4 39.2
13:30 1018 30.06 848 25.04 24.8 76.6 25 3.8 38.9
13:35 1018 30.06 848 25.04 25.6 78.1 25 4.5 40.1
13:40 1018 30.06 848 25.04 25.6 78.1 24 3.8 38.8
13:45 1018 30.06 847 25.01 25.1 77.1 24 3.5 38.3
13:50 1018 30.06 847 25.01 25.4 77.7 23 3.2 37.8
13:55 1018 30.06 847 25.01 25.4 77.7 26 4.6 40.4
14:00 1018 30.06 847 25.01 25.8 78.5 23 3.1 37.6
14:05 1018 30.06 847 25.01 25.2 77.4 26 4.7 40.4
14:10 1018 30.06 847 25.01 25.7 78.3 23 3.6 38.5
14:15 1018 30.06 847 25.01 25.7 78.3 24 4 39.1
14:20 1018 30.06 847 25.01 26.2 79.2 22 3.2 37.8
14:25 1018 30.06 847 25.01 27 80.7 23 4.2 39.5
14:30 1018 30.06 847 25.01 26.8 80.3 23 4.2 39.6
14:35 1018 30.06 847 25.01 26.1 79 23 3.4 38.1
14:40 1018 30.06 847 25.01 25.3 77.6 25 4 39.2
14:45 1018 30.06 847 25.01 25.3 77.6 23 3.1 37.6
14:50 1017 30.03 847 25.01 25.6 78 23 3.3 38
14:55 1017 30.03 847 25.01 25.7 78.2 23 3.1 37.6
15:00 1017 30.03 847 25.01 25.2 77.3 24 3.7 38.6
15:05 1017 30.03 847 25.01 25.2 77.3 24 3.4 38
15:10 1017 30.03 846 24.98 26.3 79.3 21 2.5 36.6
15:15 1017 30.03 846 24.98 27 80.5 21 2.8 37
15:20 1017 30.03 846 24.98 26.6 79.9 22 3.3 37.9
15:25 1017 30.03 846 24.98 27 80.6 21 3.3 37.9
15:30 1017 30.03 846 24.98 26.8 80.3 23 4 39.1
15:35 1017 30.03 846 24.98 26.9 80.4 22 3.5 38.3
15:40 1017 30.03 846 24.98 27.3 81.2 21 3.4 38.1
15:45 1017 30.03 846 24.98 27.8 82 19 2.5 36.6
15:50 1017 30.03 846 24.98 26.6 79.8 21 2.6 36.6
15:55 1017 30.03 846 24.98 26.8 80.3 21 2.9 37.2
16:00 1017 30.03 846 24.98 26.5 79.6 21 2.7 36.9
16:05 1017 30.03 846 24.98 26.8 80.2 22 3.3 37.9
16:10 1017 30.03 846 24.98 27 80.7 20 2.7 36.8
16:15 1017 30.03 846 24.98 27.3 81.2 19 2.1 35.8
16:20 1017 30.03 846 24.98 26.3 79.3 21 2.4 36.4
16:25 1016 30 846 24.98 25.7 78.2 22 2.4 36.4
16:30 1016 30 846 24.98 25.5 77.9 22 2.4 36.3
16:35 1016 30 845 24.95 25.4 77.8 22 2.5 36.6
16:40 1016 30 845 24.95 25.7 78.2 21 2.1 35.7
16:45 1016 30 845 24.95 25 77 22 2.2 35.9
16:50 1016 30 845 24.95 25.3 77.5 21 1.9 35.4
16:55 1016 30 845 24.95 25.1 77.2 22 2.4 36.3
17:00 1016 30 845 24.95 24.7 76.5 23 2.5 36.5
17:05 1016 30 845 24.95 24.9 76.9 22 2.3 36.1
17:10 1016 30 845 24.95 25.2 77.4 23 2.6 36.6
17:15 1016 30 845 24.95 25 76.9 23 2.5 36.5
17:20 1016 30 845 24.95 25.3 77.6 22 2.3 36.2
17:25 1016 30 845 24.95 25.1 77.2 22 2.1 35.8
17:30 1016 30 845 24.95 25.2 77.3 23 2.7 36.9
17:35 1016 30 845 24.95 25.8 78.5 22 2.8 37
17:40 1016 30 845 24.95 26.1 79 21 2.3 36.1
17:45 1016 30 845 24.95 27.2 80.9 20 2.5 36.6
17:50 1016 30 845 24.95 26.6 79.8 21 3.1 37.5
17:55 1016 30 845 24.95 26.5 79.8 21 2.4 36.4
18:00 1016 30 845 24.95 26.7 80.1 21 2.8 37
18:05 1016 30 845 24.95 26.8 80.2 21 3 37.3
18:10 1016 30 845 24.95 27.3 81.1 20 2.6 36.8
18:15 1016 30 845 24.95 27.1 80.7 23 4.4 40
18:20 1016 30 845 24.95 26.9 80.5 21 3.1 37.6
18:25 1016 30 845 24.95 26.7 80 21 3.1 37.6
18:30 1016 30 845 24.95 26.1 79 22 3.2 37.8
18:35 1016 30 845 24.95 26.2 79.2 22 2.9 37.2
18:40 1016 30 845 24.95 26.7 80 22 3.2 37.7
18:45 1016 30 845 24.95 25.9 78.5 22 3.1 37.5
18:50 1015 29.97 845 24.95 25.7 78.3 22 2.9 37.3
18:55 1015 29.97 845 24.95 25.5 77.8 23 3.4 38.1
19:00 1015 29.97 845 24.95 25.6 78.1 23 3.3 38
19:05 1015 29.97 845 24.95 24.6 76.3 25 3.8 38.8
19:10 1016 30 845 24.95 24.5 76.1 25 3.6 38.4
19:15 1016 30 845 24.95 24.6 76.2 25 3.6 38.6
19:20 1016 30 845 24.95 24.3 75.7 26 3.6 38.6
19:25 1016 30 845 24.95 24.1 75.4 25 3.2 37.8
19:30 1016 30 845 24.95 24.2 75.6 26 3.5 38.3
19:35 1015 29.97 845 24.95 24.1 75.4 25 3.4 38
19:40 1015 29.97 845 24.95 24 75.2 26 3.3 37.9
19:45 1015 29.97 845 24.95 24.1 75.3 26 3.4 38.2
19:50 1015 29.97 845 24.95 23.9 75 26 3.4 38.2
19:55 1015 29.97 845 24.95 23.8 74.8 26 3.4 38.2
20:00 1016 30 845 24.95 23.8 74.8 26 3.6 38.5
20:05 1016 30 845 24.95 23.8 74.8 27 3.8 38.8
20:10 1015 29.97 845 24.95 23.6 74.5 27 3.9 39
20:15 1015 29.97 845 24.95 23.5 74.2 28 4 39.3
20:20 1016 30 845 24.95 23.4 74.1 28 4.1 39.5
20:25 1016 30 845 24.95 23.5 74.3 28 4 39.1
20:30 1016 30 845 24.95 23.5 74.3 28 4 39.1
20:35 1016 30 845 24.95 23.5 74.4 30 5.3 41.5
20:40 1016 30 845 24.95 23.4 74.1 31 5.7 42.2
20:45 1016 30 845 24.95 22.2 72 37 7.1 44.8
20:50 1016 30 845 24.95 21.3 70.4 38 6.6 43.9
20:55 1016 30 845 24.95 21 69.8 39 6.8 44.2
21:00 1016 30 845 24.95 20.8 69.4 41 7.1 44.8
21:05 1016 30 845 24.95 20.6 69 41 7 44.5
21:10 1016 30 845 24.95 20.4 68.7 41 6.9 44.5
21:15 1016 30 845 24.95 20.3 68.5 41 6.8 44.2
21:20 1016 30 845 24.95 20.2 68.3 40 6.3 43.4
21:25 1016 30 845 24.95 20.1 68.1 40 6.2 43.2
21:30 1016 30 845 24.95 19.7 67.5 41 6.1 43
21:35 1016 30 845 24.95 19.4 67 41 5.9 42.7
21:40 1016 30 845 24.95 19.6 67.2 37 4.6 40.2
21:45 1016 30 845 24.95 19.8 67.6 37 4.7 40.4
21:50 1016 30 845 24.95 19.8 67.6 36 4.4 39.9
21:55 1016 30 845 24.95 19.8 67.7 35 4.2 39.6
22:00 1016 30 846 24.98 19.9 67.8 36 4.7 40.5
22:05 1016 30 846 24.98 19.9 67.7 36 4.7 40.4
22:10 1016 30 846 24.98 19.8 67.6 36 4.5 40
22:15 1016 30 846 24.98 19.8 67.6 36 4.5 40.1
22:20 1017 30.03 846 24.98 19.8 67.7 36 4.6 40.2
22:25 1017 30.03 846 24.98 19.9 67.8 35 4.2 39.5
22:30 1017 30.03 846 24.98 19.9 67.8 36 4.6 40.4
22:35 1017 30.03 846 24.98 19.8 67.7 36 4.4 39.9
22:40 1017 30.03 846 24.98 19.6 67.4 37 4.5 40.2
22:45 1017 30.03 846 24.98 19.4 66.9 38 4.8 40.7
22:50 1017 30.03 846 24.98 19.3 66.7 37 4.5 40
22:55 1017 30.03 846 24.98 19.3 66.8 35 3.7 38.7
23:00 1017 30.03 846 24.98 19.4 66.9 36 4.1 39.3
23:05 1017 30.03 846 24.98 19.4 66.9 36 4.2 39.5
23:10 1017 30.03 846 24.98 19.4 66.9 36 4.2 39.5
23:15 1017 30.03 846 24.98 19.3 66.7 38 4.9 40.9
23:20 1017 30.03 846 24.98 18.6 65.4 42 5.7 42.2
23:25 1017 30.03 846 24.98 18.1 64.5 45 6 42.8
23:30 1017 30.03 846 24.98 17.8 64.1 48 6.7 44.1
23:35 1017 30.03 846 24.98 17.5 63.6 49 6.8 44.3
23:40 1017 30.03 846 24.98 17.4 63.3 47 6.2 43.1
23:45 1017 30.03 846 24.98 17.5 63.4 48 6.4 43.6
23:50 1017 30.03 846 24.98 17.6 63.6 48 6.5 43.8
23:55 1017 30.03 846 24.98 17.4 63.4 51 7.3 45.2